Time;durP1;ratioP1;P1;durP2;ratioP2;P2;SDS_P1;SDS_P2;PMS_P1;PMS_P2;Temp;Humidity;BMP_temperature;BMP_pressure;BME280_temperature;BME280_humidity;BME280_pressure;Samples;Min_cycle;Max_cycle;Signal;HPM_P1;HPM_P2
2021/07/26 00:01:15;;;;;;;8.43;7.70;;;;;;;22.84;47.72;94673.67;828314;71;30401;-78
2021/07/26 00:16:23;;;;;;;8.50;7.60;;;;;;;22.58;48.53;94645.80;833927;71;29779;-77
2021/07/26 00:31:27;;;;;;;6.43;5.93;;;;;;;22.85;47.88;94654.38;827514;71;32637;-77
2021/07/26 00:46:18;;;;;;;7.70;7.10;;;;;;;23.74;46.46;94661.37;834667;71;29736;-78
2021/07/26 01:01:22;;;;;;;7.40;6.70;;;;;;;24.09;46.24;94657.53;829610;71;38125;-79
2021/07/26 01:16:23;;;;;;;8.70;8.00;;;;;;;24.45;45.41;94634.41;828324;71;32764;-76
2021/07/26 01:31:18;;;;;;;11.30;10.20;;;;;;;24.70;45.13;94658.00;794247;74;33120;-78
2021/07/26 01:46:30;;;;;;;10.20;9.30;;;;;;;24.90;44.86;94673.24;833808;71;32680;-76
2021/07/26 02:01:22;;;;;;;9.00;8.20;;;;;;;24.79;45.07;94679.32;828176;71;29696;-78
2021/07/26 02:16:42;;;;;;;8.50;7.80;;;;;;;24.75;45.17;94704.03;833765;71;33202;-78
2021/07/26 02:31:19;;;;;;;8.40;7.70;;;;;;;24.77;45.06;94715.16;828107;71;30358;-78
2021/07/26 02:46:16;;;;;;;8.97;8.20;;;;;;;24.68;45.22;94725.47;828441;71;29718;-79
2021/07/26 03:16:11;;;;;;;9.20;8.40;;;;;;;24.64;46.45;94734.64;834129;71;30375;-78
2021/07/26 03:31:14;;;;;;;10.70;9.47;;;;;;;24.56;46.43;94737.83;827500;71;33198;-78
2021/07/26 03:46:09;;;;;;;9.53;8.53;;;;;;;24.73;46.18;94743.89;828653;71;30747;-77
2021/07/26 04:01:14;;;;;;;10.43;9.53;;;;;;;24.93;45.69;94765.90;827351;71;32723;-76
2021/07/26 04:16:15;;;;;;;9.60;8.70;;;;;;;25.14;45.22;94755.09;827237;71;33166;-76
2021/07/26 04:31:08;;;;;;;9.60;8.63;;;;;;;25.46;44.62;94762.02;828235;71;29731;-75
2021/07/26 04:46:09;;;;;;;96.33;65.63;;;;;;;25.69;46.03;94771.16;828925;71;29798;-78
2021/07/26 05:01:13;;;;;;;69.30;45.63;;;;;;;26.06;45.39;94782.84;828560;71;33084;-76
2021/07/26 05:16:08;;;;;;;14.17;11.80;;;;;;;26.41;43.52;94790.20;828251;71;29704;-76
2021/07/26 05:31:21;;;;;;;9.30;8.40;;;;;;;26.32;43.09;94791.17;834177;71;29758;-82
2021/07/26 05:46:25;;;;;;;9.57;8.57;;;;;;;26.75;42.51;94798.73;833881;71;32860;-78
2021/07/26 06:01:36;;;;;;;12.87;9.37;;;;;;;17.96;42.27;93459.22;828316;71;30272;-77
2021/07/26 06:16:22;;;;;;;11.00;9.83;;;;;;;26.41;43.11;94814.43;827193;71;33240;-77
2021/07/26 06:31:46;;;;;;;12.40;11.30;;;;;;;26.73;42.64;94807.02;789684;73;33114;-80
2021/07/26 13:31:47;;;;;;;12.20;11.20;;;;;;;33.72;29.08;94627.77;816431;71;30432;-76
2021/07/26 15:16:15;;;;;;;11.50;10.40;;;;;;;32.73;29.22;94609.69;827540;71;32740;-75
2021/07/26 15:31:10;;;;;;;11.80;10.80;;;;;;;32.66;29.58;94609.26;828310;71;29772;-77
2021/07/26 15:46:09;;;;;;;11.87;10.67;;;;;;;32.54;30.04;94611.30;828267;71;29614;-72
2021/07/26 16:01:18;;;;;;;12.00;10.93;;;;;;;32.20;30.79;94615.83;827687;71;33305;-74
2021/07/26 16:16:09;;;;;;;11.23;10.13;;;;;;;31.93;32.02;94631.75;828323;71;30655;-78
2021/07/26 16:31:10;;;;;;;13.13;11.83;;;;;;;31.57;32.34;94637.20;828625;71;29193;-76
2021/07/26 16:46:28;;;;;;;18.13;16.43;;;;;;;31.17;32.80;94645.37;822210;71;32685;-76
2021/07/26 17:01:26;;;;;;;53.13;40.17;;;;;;;30.74;39.64;94649.62;834424;71;32772;-76
2021/07/26 17:16:19;;;;;;;22.17;19.90;;;;;;;30.48;40.97;94667.47;828210;71;30321;-75
2021/07/26 17:31:16;;;;;;;17.63;16.00;;;;;;;30.13;40.01;94678.42;828345;71;30178;-74
2021/07/26 17:46:20;;;;;;;14.43;12.93;;;;;;;29.68;40.98;94685.97;827693;71;33189;-71
2021/07/26 18:01:19;;;;;;;12.50;11.40;;;;;;;29.33;41.93;94694.70;827405;71;33279;-71
2021/07/26 18:16:17;;;;;;;12.50;11.40;;;;;;;28.89;42.91;94705.19;833977;71;32724;-74
2021/07/26 18:31:24;;;;;;;11.07;10.07;;;;;;;28.37;43.46;94699.22;824015;71;30916;-74
2021/07/26 18:46:27;;;;;;;12.00;10.90;;;;;;;28.06;44.42;94734.72;824493;71;33343;-72
2021/07/26 19:01:43;;;;;;;11.90;10.90;;;;;;;27.67;45.13;94745.08;820673;71;32847;-73
2021/07/26 19:16:16;;;;;;;11.73;10.73;;;;;;;27.46;45.87;94762.11;822342;71;29877;-73
2021/07/26 19:31:21;;;;;;;11.47;10.43;;;;;;;27.31;46.28;94756.55;819563;71;32931;-74
2021/07/26 19:46:12;;;;;;;12.53;11.20;;;;;;;;;;821723;71;30391;-77
2021/07/26 20:01:09;;;;;;;12.83;11.63;;;;;;;;;;826220;71;29826;-74
2021/07/26 20:16:14;;;;;;;14.20;12.90;;;;;;;;;;834114;71;32764;-77
2021/07/26 20:31:28;;;;;;;14.70;13.20;;;;;;;27.01;49.00;94760.45;827878;71;32726;-76
2021/07/26 20:46:20;;;;;;;14.67;13.27;;;;;;;26.92;49.02;94769.48;823527;71;30300;-77
2021/07/26 21:31:08;;;;;;;14.23;12.83;;;;;;;26.70;48.12;94776.24;834506;71;29791;-76
2021/07/26 21:46:08;;;;;;;13.33;11.90;;;;;;;;;;829148;71;30082;-79
2021/07/26 22:01:17;;;;;;;14.57;13.20;;;;;;;26.68;48.69;94798.72;834192;71;32745;-77
2021/07/26 22:16:11;;;;;;;14.03;12.73;;;;;;;26.65;49.06;94812.95;834169;71;29661;-76
2021/07/26 22:31:08;;;;;;;14.70;13.23;;;;;;;26.65;49.18;94816.23;828262;71;30258;-74
2021/07/26 22:46:09;;;;;;;14.13;12.60;;;;;;;26.53;49.52;94810.61;828228;71;30280;-75
2021/07/26 23:01:08;;;;;;;14.67;13.37;;;;;;;26.53;49.61;94799.26;828350;71;29977;-76
2021/07/26 23:16:09;;;;;;;14.40;13.00;;;;;;;16.26;49.34;93287.93;828574;71;29817;-75
2021/07/26 23:31:14;;;;;;;14.13;12.73;;;;;;;26.33;49.60;94806.91;834023;71;33283;-77
2021/07/26 23:46:07;;;;;;;13.93;12.77;;;;;;;;;;834004;71;30406;-75
